sensor_id;sensor_type;location;lat;lon;timestamp;temperature;humidity
57843;DHT22;43673;51.058;3.734;2022-09-09T00:02:01;16.60;99.90
57843;DHT22;43673;51.058;3.734;2022-09-09T00:10:05;16.70;99.90
57843;DHT22;43673;51.058;3.734;2022-09-09T00:12:43;16.70;99.90
57843;DHT22;43673;51.058;3.734;2022-09-09T00:15:24;16.60;99.90
57843;DHT22;43673;51.058;3.734;2022-09-09T00:21:08;16.60;99.90
57843;DHT22;43673;51.058;3.734;2022-09-09T00:23:55;16.70;99.90
57843;DHT22;43673;51.058;3.734;2022-09-09T00:26:38;16.70;99.90
57843;DHT22;43673;51.058;3.734;2022-09-09T00:31:46;16.70;99.90
57843;DHT22;43673;51.058;3.734;2022-09-09T00:36:43;16.70;99.90
57843;DHT22;43673;51.058;3.734;2022-09-09T00:39:31;16.60;99.90
57843;DHT22;43673;51.058;3.734;2022-09-09T00:44:58;16.60;99.90
57843;DHT22;43673;51.058;3.734;2022-09-09T00:47:38;16.60;99.90
57843;DHT22;43673;51.058;3.734;2022-09-09T00:56:19;16.40;99.90
57843;DHT22;43673;51.058;3.734;2022-09-09T01:01:35;16.40;99.90
57843;DHT22;43673;51.058;3.734;2022-09-09T01:04:04;16.40;99.90
57843;DHT22;43673;51.058;3.734;2022-09-09T01:06:34;16.40;99.90
57843;DHT22;43673;51.058;3.734;2022-09-09T01:09:22;16.40;99.90
57843;DHT22;43673;51.058;3.734;2022-09-09T01:19:58;16.40;99.90
57843;DHT22;43673;51.058;3.734;2022-09-09T01:26:03;16.40;99.90
57843;DHT22;43673;51.058;3.734;2022-09-09T01:28:31;16.30;99.90
57843;DHT22;43673;51.058;3.734;2022-09-09T01:30:59;16.30;99.90
57843;DHT22;43673;51.058;3.734;2022-09-09T01:33:25;16.30;99.90
57843;DHT22;43673;51.058;3.734;2022-09-09T01:35:59;16.30;99.90
57843;DHT22;43673;51.058;3.734;2022-09-09T01:38:28;16.30;99.90
57843;DHT22;43673;51.058;3.734;2022-09-09T01:40:55;16.30;99.90
57843;DHT22;43673;51.058;3.734;2022-09-09T01:43:21;16.30;99.90
57843;DHT22;43673;51.058;3.734;2022-09-09T01:45:50;16.30;99.90
57843;DHT22;43673;51.058;3.734;2022-09-09T01:48:18;16.20;99.90
57843;DHT22;43673;51.058;3.734;2022-09-09T01:50:44;16.30;99.90
57843;DHT22;43673;51.058;3.734;2022-09-09T01:53:10;16.30;99.90
57843;DHT22;43673;51.058;3.734;2022-09-09T01:55:39;16.30;99.90
57843;DHT22;43673;51.058;3.734;2022-09-09T01:58:20;16.30;99.90
57843;DHT22;43673;51.058;3.734;2022-09-09T02:01:00;16.30;99.90
57843;DHT22;43673;51.058;3.734;2022-09-09T02:03:28;16.30;99.90
57843;DHT22;43673;51.058;3.734;2022-09-09T02:06:24;16.20;99.90
57843;DHT22;43673;51.058;3.734;2022-09-09T02:08:54;16.20;99.90
57843;DHT22;43673;51.058;3.734;2022-09-09T02:11:26;16.00;99.90
57843;DHT22;43673;51.058;3.734;2022-09-09T02:13:57;16.00;99.90
57843;DHT22;43673;51.058;3.734;2022-09-09T02:16:30;16.10;99.90
57843;DHT22;43673;51.058;3.734;2022-09-09T02:19:18;16.10;99.90
57843;DHT22;43673;51.058;3.734;2022-09-09T02:21:46;16.10;99.90
57843;DHT22;43673;51.058;3.734;2022-09-09T02:24:14;16.10;99.90
57843;DHT22;43673;51.058;3.734;2022-09-09T02:26:42;16.10;99.90
57843;DHT22;43673;51.058;3.734;2022-09-09T02:29:14;16.10;99.90
57843;DHT22;43673;51.058;3.734;2022-09-09T02:31:42;16.20;99.90
57843;DHT22;43673;51.058;3.734;2022-09-09T02:34:11;16.30;99.90
57843;DHT22;43673;51.058;3.734;2022-09-09T02:36:40;16.30;99.90
57843;DHT22;43673;51.058;3.734;2022-09-09T02:39:08;16.40;99.90
57843;DHT22;43673;51.058;3.734;2022-09-09T02:41:37;16.50;99.90
57843;DHT22;43673;51.058;3.734;2022-09-09T02:44:14;16.50;99.90
57843;DHT22;43673;51.058;3.734;2022-09-09T02:50:14;16.40;99.90
57843;DHT22;43673;51.058;3.734;2022-09-09T02:55:47;16.60;99.90
57843;DHT22;43673;51.058;3.734;2022-09-09T02:58:17;16.50;99.90
57843;DHT22;43673;51.058;3.734;2022-09-09T03:00:48;16.50;99.90
57843;DHT22;43673;51.058;3.734;2022-09-09T03:03:14;16.50;99.90
57843;DHT22;43673;51.058;3.734;2022-09-09T03:05:41;16.60;99.90
57843;DHT22;43673;51.058;3.734;2022-09-09T03:08:07;16.60;99.90
57843;DHT22;43673;51.058;3.734;2022-09-09T03:10:33;16.60;99.90
57843;DHT22;43673;51.058;3.734;2022-09-09T03:13:00;16.50;99.90
57843;DHT22;43673;51.058;3.734;2022-09-09T03:15:26;16.50;99.90
57843;DHT22;43673;51.058;3.734;2022-09-09T03:17:55;16.50;99.90
57843;DHT22;43673;51.058;3.734;2022-09-09T03:20:26;16.50;99.90
57843;DHT22;43673;51.058;3.734;2022-09-09T03:22:53;16.50;99.90
57843;DHT22;43673;51.058;3.734;2022-09-09T03:25:20;16.50;99.90
57843;DHT22;43673;51.058;3.734;2022-09-09T03:27:45;16.50;99.90
57843;DHT22;43673;51.058;3.734;2022-09-09T03:30:11;16.50;99.90
57843;DHT22;43673;51.058;3.734;2022-09-09T03:32:37;16.50;99.90
57843;DHT22;43673;51.058;3.734;2022-09-09T03:35:03;16.50;99.90
57843;DHT22;43673;51.058;3.734;2022-09-09T03:37:29;16.50;99.90
57843;DHT22;43673;51.058;3.734;2022-09-09T03:39:55;16.60;99.90
57843;DHT22;43673;51.058;3.734;2022-09-09T03:42:21;16.60;99.90
57843;DHT22;43673;51.058;3.734;2022-09-09T03:44:47;16.70;99.90
57843;DHT22;43673;51.058;3.734;2022-09-09T03:47:21;16.70;99.90
57843;DHT22;43673;51.058;3.734;2022-09-09T03:49:51;16.70;99.90
57843;DHT22;43673;51.058;3.734;2022-09-09T03:52:16;16.70;99.90
57843;DHT22;43673;51.058;3.734;2022-09-09T03:54:43;16.70;99.90
57843;DHT22;43673;51.058;3.734;2022-09-09T03:57:11;16.80;99.90
57843;DHT22;43673;51.058;3.734;2022-09-09T03:59:38;16.80;99.90
57843;DHT22;43673;51.058;3.734;2022-09-09T04:02:04;16.80;99.90
57843;DHT22;43673;51.058;3.734;2022-09-09T04:04:29;16.80;99.90
57843;DHT22;43673;51.058;3.734;2022-09-09T04:06:55;16.80;99.90
57843;DHT22;43673;51.058;3.734;2022-09-09T04:09:21;16.80;99.90
57843;DHT22;43673;51.058;3.734;2022-09-09T04:11:47;16.70;99.90
57843;DHT22;43673;51.058;3.734;2022-09-09T04:14:12;16.70;99.90
57843;DHT22;43673;51.058;3.734;2022-09-09T04:16:39;16.80;99.90
57843;DHT22;43673;51.058;3.734;2022-09-09T04:19:08;16.70;99.90
57843;DHT22;43673;51.058;3.734;2022-09-09T04:21:34;16.80;99.90
57843;DHT22;43673;51.058;3.734;2022-09-09T04:23:59;16.70;99.90
57843;DHT22;43673;51.058;3.734;2022-09-09T04:26:25;16.80;99.90
57843;DHT22;43673;51.058;3.734;2022-09-09T04:28:51;16.80;99.90
57843;DHT22;43673;51.058;3.734;2022-09-09T04:31:20;16.80;99.90
57843;DHT22;43673;51.058;3.734;2022-09-09T04:33:47;16.80;99.90
57843;DHT22;43673;51.058;3.734;2022-09-09T04:36:12;16.80;99.90
57843;DHT22;43673;51.058;3.734;2022-09-09T04:38:38;16.80;99.90
57843;DHT22;43673;51.058;3.734;2022-09-09T04:41:05;16.90;99.90
57843;DHT22;43673;51.058;3.734;2022-09-09T04:43:31;16.90;99.90
57843;DHT22;43673;51.058;3.734;2022-09-09T04:45:57;16.90;99.90
57843;DHT22;43673;51.058;3.734;2022-09-09T04:48:24;16.70;99.90
57843;DHT22;43673;51.058;3.734;2022-09-09T04:51:01;16.80;99.90
57843;DHT22;43673;51.058;3.734;2022-09-09T04:53:27;16.80;99.90
57843;DHT22;43673;51.058;3.734;2022-09-09T04:56:04;16.90;99.90
57843;DHT22;43673;51.058;3.734;2022-09-09T04:58:31;16.90;99.90
57843;DHT22;43673;51.058;3.734;2022-09-09T05:01:08;16.90;99.90
57843;DHT22;43673;51.058;3.734;2022-09-09T05:03:36;16.90;99.90
57843;DHT22;43673;51.058;3.734;2022-09-09T05:06:09;16.90;99.90
57843;DHT22;43673;51.058;3.734;2022-09-09T05:08:37;16.90;99.90
57843;DHT22;43673;51.058;3.734;2022-09-09T05:11:03;16.80;99.90
57843;DHT22;43673;51.058;3.734;2022-09-09T05:13:29;16.80;99.90
57843;DHT22;43673;51.058;3.734;2022-09-09T05:15:57;16.80;99.90
57843;DHT22;43673;51.058;3.734;2022-09-09T05:18:23;16.80;99.90
57843;DHT22;43673;51.058;3.734;2022-09-09T05:20:49;16.90;99.90
57843;DHT22;43673;51.058;3.734;2022-09-09T05:23:16;16.90;99.90
57843;DHT22;43673;51.058;3.734;2022-09-09T05:25:42;16.90;99.90
57843;DHT22;43673;51.058;3.734;2022-09-09T05:28:08;17.00;99.90
57843;DHT22;43673;51.058;3.734;2022-09-09T05:30:34;17.10;99.90
57843;DHT22;43673;51.058;3.734;2022-09-09T05:32:59;17.10;99.90
57843;DHT22;43673;51.058;3.734;2022-09-09T05:35:25;17.20;99.90
57843;DHT22;43673;51.058;3.734;2022-09-09T05:37:51;17.20;99.90
57843;DHT22;43673;51.058;3.734;2022-09-09T05:40:17;17.20;99.90
57843;DHT22;43673;51.058;3.734;2022-09-09T05:42:42;17.10;99.90
57843;DHT22;43673;51.058;3.734;2022-09-09T05:45:09;17.00;99.90
57843;DHT22;43673;51.058;3.734;2022-09-09T05:47:35;17.00;99.90
57843;DHT22;43673;51.058;3.734;2022-09-09T05:50:02;17.00;99.90
57843;DHT22;43673;51.058;3.734;2022-09-09T05:52:28;17.20;99.90
57843;DHT22;43673;51.058;3.734;2022-09-09T05:54:54;17.20;99.90
57843;DHT22;43673;51.058;3.734;2022-09-09T05:57:20;17.30;99.90
57843;DHT22;43673;51.058;3.734;2022-09-09T05:59:46;17.30;99.90
57843;DHT22;43673;51.058;3.734;2022-09-09T06:02:12;17.40;99.90
57843;DHT22;43673;51.058;3.734;2022-09-09T06:04:39;17.40;99.90
57843;DHT22;43673;51.058;3.734;2022-09-09T06:07:05;17.40;99.90
57843;DHT22;43673;51.058;3.734;2022-09-09T06:09:31;17.40;99.90
57843;DHT22;43673;51.058;3.734;2022-09-09T06:11:57;17.40;99.90
57843;DHT22;43673;51.058;3.734;2022-09-09T06:14:24;17.30;99.90
57843;DHT22;43673;51.058;3.734;2022-09-09T06:16:51;17.00;99.90
57843;DHT22;43673;51.058;3.734;2022-09-09T06:19:19;16.90;99.90
57843;DHT22;43673;51.058;3.734;2022-09-09T06:21:46;16.70;99.90
57843;DHT22;43673;51.058;3.734;2022-09-09T06:24:13;16.60;99.90
57843;DHT22;43673;51.058;3.734;2022-09-09T06:26:42;16.50;99.90
57843;DHT22;43673;51.058;3.734;2022-09-09T06:29:08;16.50;99.90
57843;DHT22;43673;51.058;3.734;2022-09-09T06:34:48;16.40;99.90
57843;DHT22;43673;51.058;3.734;2022-09-09T06:37:14;16.30;99.90
57843;DHT22;43673;51.058;3.734;2022-09-09T06:39:40;16.30;99.90
57843;DHT22;43673;51.058;3.734;2022-09-09T06:42:27;16.30;99.90
57843;DHT22;43673;51.058;3.734;2022-09-09T06:45:03;16.40;99.90
57843;DHT22;43673;51.058;3.734;2022-09-09T06:47:29;16.50;99.90
57843;DHT22;43673;51.058;3.734;2022-09-09T06:49:55;16.60;99.90
57843;DHT22;43673;51.058;3.734;2022-09-09T06:52:21;16.70;99.90
57843;DHT22;43673;51.058;3.734;2022-09-09T06:54:47;16.80;99.90
57843;DHT22;43673;51.058;3.734;2022-09-09T06:57:13;17.00;99.90
57843;DHT22;43673;51.058;3.734;2022-09-09T06:59:38;17.30;99.90
57843;DHT22;43673;51.058;3.734;2022-09-09T07:02:04;17.60;99.90
57843;DHT22;43673;51.058;3.734;2022-09-09T07:04:30;18.00;99.90
57843;DHT22;43673;51.058;3.734;2022-09-09T07:06:55;19.10;99.90
57843;DHT22;43673;51.058;3.734;2022-09-09T07:09:21;20.10;99.90
57843;DHT22;43673;51.058;3.734;2022-09-09T07:11:49;20.40;99.90
57843;DHT22;43673;51.058;3.734;2022-09-09T07:14:16;20.40;99.90
57843;DHT22;43673;51.058;3.734;2022-09-09T07:16:45;20.80;99.90
57843;DHT22;43673;51.058;3.734;2022-09-09T07:19:12;20.60;99.90
57843;DHT22;43673;51.058;3.734;2022-09-09T07:21:38;20.40;99.90
57843;DHT22;43673;51.058;3.734;2022-09-09T07:24:05;20.10;99.90
57843;DHT22;43673;51.058;3.734;2022-09-09T07:26:33;19.80;99.90
57843;DHT22;43673;51.058;3.734;2022-09-09T07:28:59;19.70;99.90
57843;DHT22;43673;51.058;3.734;2022-09-09T07:31:30;19.90;99.90
57843;DHT22;43673;51.058;3.734;2022-09-09T07:33:57;20.10;99.90
57843;DHT22;43673;51.058;3.734;2022-09-09T07:36:27;20.50;99.90
57843;DHT22;43673;51.058;3.734;2022-09-09T07:38:56;20.60;99.90
57843;DHT22;43673;51.058;3.734;2022-09-09T07:41:25;20.60;99.90
57843;DHT22;43673;51.058;3.734;2022-09-09T07:43:52;20.50;99.90
57843;DHT22;43673;51.058;3.734;2022-09-09T07:46:23;20.70;99.90
57843;DHT22;43673;51.058;3.734;2022-09-09T07:48:50;20.70;99.90
57843;DHT22;43673;51.058;3.734;2022-09-09T07:51:39;20.60;99.90
57843;DHT22;43673;51.058;3.734;2022-09-09T07:54:06;20.40;99.90
57843;DHT22;43673;51.058;3.734;2022-09-09T07:56:33;20.20;99.90
57843;DHT22;43673;51.058;3.734;2022-09-09T07:58:59;20.10;99.90
57843;DHT22;43673;51.058;3.734;2022-09-09T08:01:34;19.80;99.90
57843;DHT22;43673;51.058;3.734;2022-09-09T08:04:15;19.50;99.90
57843;DHT22;43673;51.058;3.734;2022-09-09T08:06:53;19.30;99.90
57843;DHT22;43673;51.058;3.734;2022-09-09T08:09:20;19.00;99.90
57843;DHT22;43673;51.058;3.734;2022-09-09T08:11:46;18.70;99.90
57843;DHT22;43673;51.058;3.734;2022-09-09T08:14:12;18.50;99.90
57843;DHT22;43673;51.058;3.734;2022-09-09T08:16:44;18.30;99.90
57843;DHT22;43673;51.058;3.734;2022-09-09T08:19:11;18.20;99.90
57843;DHT22;43673;51.058;3.734;2022-09-09T08:21:38;18.20;99.90
57843;DHT22;43673;51.058;3.734;2022-09-09T08:24:10;18.20;99.90
57843;DHT22;43673;51.058;3.734;2022-09-09T08:26:42;18.20;99.90
57843;DHT22;43673;51.058;3.734;2022-09-09T08:29:10;18.30;99.90
57843;DHT22;43673;51.058;3.734;2022-09-09T08:31:42;18.30;99.90
57843;DHT22;43673;51.058;3.734;2022-09-09T08:34:08;18.40;99.90
57843;DHT22;43673;51.058;3.734;2022-09-09T08:36:38;18.30;99.90
57843;DHT22;43673;51.058;3.734;2022-09-09T08:39:06;18.30;99.90
57843;DHT22;43673;51.058;3.734;2022-09-09T08:55:53;18.30;99.90
57843;DHT22;43673;51.058;3.734;2022-09-09T08:58:32;18.30;99.90
57843;DHT22;43673;51.058;3.734;2022-09-09T09:09:55;18.40;99.90
57843;DHT22;43673;51.058;3.734;2022-09-09T09:12:29;18.40;99.90
57843;DHT22;43673;51.058;3.734;2022-09-09T09:14:55;18.30;99.90
57843;DHT22;43673;51.058;3.734;2022-09-09T09:17:25;18.30;99.90
57843;DHT22;43673;51.058;3.734;2022-09-09T09:19:52;18.20;99.90
57843;DHT22;43673;51.058;3.734;2022-09-09T09:22:41;18.30;99.90
57843;DHT22;43673;51.058;3.734;2022-09-09T09:25:31;18.60;99.90
57843;DHT22;43673;51.058;3.734;2022-09-09T09:28:19;18.90;99.90
57843;DHT22;43673;51.058;3.734;2022-09-09T09:35:45;20.40;99.90
57843;DHT22;43673;51.058;3.734;2022-09-09T09:38:25;20.90;99.90
57843;DHT22;43673;51.058;3.734;2022-09-09T09:40:57;21.50;99.90
57843;DHT22;43673;51.058;3.734;2022-09-09T09:45:55;21.50;99.90
57843;DHT22;43673;51.058;3.734;2022-09-09T09:48:23;21.40;99.90
57843;DHT22;43673;51.058;3.734;2022-09-09T09:51:10;21.10;99.90
57843;DHT22;43673;51.058;3.734;2022-09-09T09:53:39;20.80;99.90
57843;DHT22;43673;51.058;3.734;2022-09-09T09:56:14;20.50;99.90
57843;DHT22;43673;51.058;3.734;2022-09-09T10:01:30;20.50;99.90
57843;DHT22;43673;51.058;3.734;2022-09-09T10:04:22;20.50;99.90
57843;DHT22;43673;51.058;3.734;2022-09-09T10:06:49;20.40;99.90
57843;DHT22;43673;51.058;3.734;2022-09-09T10:09:25;20.40;99.90
57843;DHT22;43673;51.058;3.734;2022-09-09T10:20:45;20.20;99.90
57843;DHT22;43673;51.058;3.734;2022-09-09T10:26:29;20.60;99.90
57843;DHT22;43673;51.058;3.734;2022-09-09T10:29:16;20.90;99.90
57843;DHT22;43673;51.058;3.734;2022-09-09T10:31:52;20.80;99.90
57843;DHT22;43673;51.058;3.734;2022-09-09T10:37:34;20.40;99.90
57843;DHT22;43673;51.058;3.734;2022-09-09T10:46:10;20.80;99.90
57843;DHT22;43673;51.058;3.734;2022-09-09T10:52:05;21.60;99.90
57843;DHT22;43673;51.058;3.734;2022-09-09T10:57:36;21.80;99.90
57843;DHT22;43673;51.058;3.734;2022-09-09T11:02:41;21.60;99.90
57843;DHT22;43673;51.058;3.734;2022-09-09T11:05:40;21.60;99.90
57843;DHT22;43673;51.058;3.734;2022-09-09T11:08:15;21.70;99.90
57843;DHT22;43673;51.058;3.734;2022-09-09T11:16:25;21.90;99.90
57843;DHT22;43673;51.058;3.734;2022-09-09T11:19:03;22.30;99.90
57843;DHT22;43673;51.058;3.734;2022-09-09T11:21:35;23.10;99.90
57843;DHT22;43673;51.058;3.734;2022-09-09T11:24:06;23.80;99.90
57843;DHT22;43673;51.058;3.734;2022-09-09T11:40:58;23.60;99.90
57843;DHT22;43673;51.058;3.734;2022-09-09T11:43:31;23.70;99.90
57843;DHT22;43673;51.058;3.734;2022-09-09T11:46:00;23.80;99.90
57843;DHT22;43673;51.058;3.734;2022-09-09T11:48:38;23.80;99.90
57843;DHT22;43673;51.058;3.734;2022-09-09T11:51:08;23.70;99.90
57843;DHT22;43673;51.058;3.734;2022-09-09T11:53:55;23.50;99.90
57843;DHT22;43673;51.058;3.734;2022-09-09T11:56:45;23.20;99.90
57843;DHT22;43673;51.058;3.734;2022-09-09T11:59:24;22.80;99.90
57843;DHT22;43673;51.058;3.734;2022-09-09T12:02:18;22.40;99.90
57843;DHT22;43673;51.058;3.734;2022-09-09T12:04:59;22.40;99.90
57843;DHT22;43673;51.058;3.734;2022-09-09T12:10:30;22.90;99.90
57843;DHT22;43673;51.058;3.734;2022-09-09T12:13:17;22.80;99.90
57843;DHT22;43673;51.058;3.734;2022-09-09T12:15:53;22.70;99.90
57843;DHT22;43673;51.058;3.734;2022-09-09T12:34:46;22.90;99.90
57843;DHT22;43673;51.058;3.734;2022-09-09T12:42:49;22.70;99.90
57843;DHT22;43673;51.058;3.734;2022-09-09T12:45:18;22.60;99.90
57843;DHT22;43673;51.058;3.734;2022-09-09T12:50:35;22.70;99.90
57843;DHT22;43673;51.058;3.734;2022-09-09T12:53:07;22.60;99.90
57843;DHT22;43673;51.058;3.734;2022-09-09T12:55:36;22.50;99.90
57843;DHT22;43673;51.058;3.734;2022-09-09T12:58:04;22.40;99.90
57843;DHT22;43673;51.058;3.734;2022-09-09T13:00:32;22.30;99.90
57843;DHT22;43673;51.058;3.734;2022-09-09T13:03:13;22.20;99.90
57843;DHT22;43673;51.058;3.734;2022-09-09T13:05:41;22.20;99.90
57843;DHT22;43673;51.058;3.734;2022-09-09T13:08:13;22.20;99.90
57843;DHT22;43673;51.058;3.734;2022-09-09T13:10:54;22.30;99.90
57843;DHT22;43673;51.058;3.734;2022-09-09T13:13:36;22.40;99.90
57843;DHT22;43673;51.058;3.734;2022-09-09T13:16:04;22.40;99.90
57843;DHT22;43673;51.058;3.734;2022-09-09T13:18:34;22.30;99.90
57843;DHT22;43673;51.058;3.734;2022-09-09T13:21:00;22.40;99.90
57843;DHT22;43673;51.058;3.734;2022-09-09T13:23:28;22.50;99.90
57843;DHT22;43673;51.058;3.734;2022-09-09T13:26:06;22.90;99.90
57843;DHT22;43673;51.058;3.734;2022-09-09T13:28:44;23.40;99.90
57843;DHT22;43673;51.058;3.734;2022-09-09T13:31:23;23.70;99.90
57843;DHT22;43673;51.058;3.734;2022-09-09T13:33:49;23.80;99.90
57843;DHT22;43673;51.058;3.734;2022-09-09T13:36:15;23.70;99.90
57843;DHT22;43673;51.058;3.734;2022-09-09T13:41:23;23.40;99.90
57843;DHT22;43673;51.058;3.734;2022-09-09T13:43:50;23.40;99.90
57843;DHT22;43673;51.058;3.734;2022-09-09T13:46:38;23.30;99.90
57843;DHT22;43673;51.058;3.734;2022-09-09T13:54:06;23.00;99.90
57843;DHT22;43673;51.058;3.734;2022-09-09T13:56:35;22.90;99.90
57843;DHT22;43673;51.058;3.734;2022-09-09T13:59:02;22.90;99.90
57843;DHT22;43673;51.058;3.734;2022-09-09T14:01:29;23.00;99.90
57843;DHT22;43673;51.058;3.734;2022-09-09T14:03:55;23.00;99.90
57843;DHT22;43673;51.058;3.734;2022-09-09T14:06:22;23.00;99.90
57843;DHT22;43673;51.058;3.734;2022-09-09T14:08:51;22.90;99.90
57843;DHT22;43673;51.058;3.734;2022-09-09T14:11:18;22.90;99.90
57843;DHT22;43673;51.058;3.734;2022-09-09T14:13:44;22.80;99.90
57843;DHT22;43673;51.058;3.734;2022-09-09T14:16:10;22.70;99.90
57843;DHT22;43673;51.058;3.734;2022-09-09T14:18:36;22.70;99.90
57843;DHT22;43673;51.058;3.734;2022-09-09T14:21:03;22.50;99.90
57843;DHT22;43673;51.058;3.734;2022-09-09T14:23:29;22.30;99.90
57843;DHT22;43673;51.058;3.734;2022-09-09T14:25:55;22.40;99.90
57843;DHT22;43673;51.058;3.734;2022-09-09T14:28:21;22.40;99.90
57843;DHT22;43673;51.058;3.734;2022-09-09T14:30:47;22.50;99.90
57843;DHT22;43673;51.058;3.734;2022-09-09T14:33:15;22.50;99.90
57843;DHT22;43673;51.058;3.734;2022-09-09T14:35:41;22.50;99.90
57843;DHT22;43673;51.058;3.734;2022-09-09T14:38:08;22.90;99.90
57843;DHT22;43673;51.058;3.734;2022-09-09T14:40:35;23.30;99.90
57843;DHT22;43673;51.058;3.734;2022-09-09T14:43:02;23.40;99.90
57843;DHT22;43673;51.058;3.734;2022-09-09T14:45:28;23.50;99.90
57843;DHT22;43673;51.058;3.734;2022-09-09T14:47:54;23.40;99.90
57843;DHT22;43673;51.058;3.734;2022-09-09T14:50:20;23.30;99.90
57843;DHT22;43673;51.058;3.734;2022-09-09T14:52:46;23.40;99.90
57843;DHT22;43673;51.058;3.734;2022-09-09T14:55:12;23.20;99.90
57843;DHT22;43673;51.058;3.734;2022-09-09T14:57:38;22.80;99.90
57843;DHT22;43673;51.058;3.734;2022-09-09T15:00:07;22.60;99.90
57843;DHT22;43673;51.058;3.734;2022-09-09T15:02:33;22.40;99.90
57843;DHT22;43673;51.058;3.734;2022-09-09T15:04:59;22.60;99.90
57843;DHT22;43673;51.058;3.734;2022-09-09T15:07:25;22.80;99.90
57843;DHT22;43673;51.058;3.734;2022-09-09T15:09:52;22.80;99.90
57843;DHT22;43673;51.058;3.734;2022-09-09T15:12:18;22.70;99.90
57843;DHT22;43673;51.058;3.734;2022-09-09T15:14:45;22.80;99.90
57843;DHT22;43673;51.058;3.734;2022-09-09T15:17:11;23.00;99.90
57843;DHT22;43673;51.058;3.734;2022-09-09T15:19:37;23.20;99.90
57843;DHT22;43673;51.058;3.734;2022-09-09T15:22:04;23.40;99.90
57843;DHT22;43673;51.058;3.734;2022-09-09T15:24:31;23.50;99.90
57843;DHT22;43673;51.058;3.734;2022-09-09T15:26:57;23.70;99.90
57843;DHT22;43673;51.058;3.734;2022-09-09T15:29:23;23.70;99.90
57843;DHT22;43673;51.058;3.734;2022-09-09T15:31:49;23.70;99.90
57843;DHT22;43673;51.058;3.734;2022-09-09T15:34:14;23.60;99.90
57843;DHT22;43673;51.058;3.734;2022-09-09T15:36:44;23.50;99.90
57843;DHT22;43673;51.058;3.734;2022-09-09T15:39:13;23.40;99.90
57843;DHT22;43673;51.058;3.734;2022-09-09T15:41:42;23.20;99.90
57843;DHT22;43673;51.058;3.734;2022-09-09T15:44:09;23.00;99.90
57843;DHT22;43673;51.058;3.734;2022-09-09T15:46:38;22.70;99.90
57843;DHT22;43673;51.058;3.734;2022-09-09T15:49:11;22.50;99.90
57843;DHT22;43673;51.058;3.734;2022-09-09T15:51:40;22.30;99.90
57843;DHT22;43673;51.058;3.734;2022-09-09T15:54:06;22.20;99.90
57843;DHT22;43673;51.058;3.734;2022-09-09T15:56:32;22.20;99.90
57843;DHT22;43673;51.058;3.734;2022-09-09T15:58:59;22.20;99.90
57843;DHT22;43673;51.058;3.734;2022-09-09T16:01:29;22.20;99.90
57843;DHT22;43673;51.058;3.734;2022-09-09T16:03:57;22.20;99.90
57843;DHT22;43673;51.058;3.734;2022-09-09T16:06:24;22.20;99.90
57843;DHT22;43673;51.058;3.734;2022-09-09T16:08:51;22.10;99.90
57843;DHT22;43673;51.058;3.734;2022-09-09T16:11:38;22.10;99.90
57843;DHT22;43673;51.058;3.734;2022-09-09T16:14:04;22.10;99.90
57843;DHT22;43673;51.058;3.734;2022-09-09T16:19:34;22.10;99.90
57843;DHT22;43673;51.058;3.734;2022-09-09T16:22:00;22.00;99.90
57843;DHT22;43673;51.058;3.734;2022-09-09T16:24:26;22.20;99.90
57843;DHT22;43673;51.058;3.734;2022-09-09T16:26:53;22.30;99.90
57843;DHT22;43673;51.058;3.734;2022-09-09T16:29:20;22.30;99.90
57843;DHT22;43673;51.058;3.734;2022-09-09T16:31:48;22.30;99.90
57843;DHT22;43673;51.058;3.734;2022-09-09T16:34:15;22.20;99.90
57843;DHT22;43673;51.058;3.734;2022-09-09T16:36:42;22.20;99.90
57843;DHT22;43673;51.058;3.734;2022-09-09T16:39:13;22.00;99.90
57843;DHT22;43673;51.058;3.734;2022-09-09T16:41:41;22.00;99.90
57843;DHT22;43673;51.058;3.734;2022-09-09T16:44:09;21.80;99.90
57843;DHT22;43673;51.058;3.734;2022-09-09T16:46:38;21.80;99.90
57843;DHT22;43673;51.058;3.734;2022-09-09T16:49:06;21.90;99.90
57843;DHT22;43673;51.058;3.734;2022-09-09T16:51:36;21.90;99.90
57843;DHT22;43673;51.058;3.734;2022-09-09T16:54:03;22.00;99.90
57843;DHT22;43673;51.058;3.734;2022-09-09T16:56:30;21.90;99.90
57843;DHT22;43673;51.058;3.734;2022-09-09T16:59:00;21.70;99.90
57843;DHT22;43673;51.058;3.734;2022-09-09T17:01:29;21.60;99.90
57843;DHT22;43673;51.058;3.734;2022-09-09T17:03:59;21.50;99.90
57843;DHT22;43673;51.058;3.734;2022-09-09T17:06:27;21.50;99.90
57843;DHT22;43673;51.058;3.734;2022-09-09T17:08:59;21.50;99.90
57843;DHT22;43673;51.058;3.734;2022-09-09T17:11:27;21.30;99.90
57843;DHT22;43673;51.058;3.734;2022-09-09T17:13:54;21.10;99.90
57843;DHT22;43673;51.058;3.734;2022-09-09T17:16:22;20.60;99.90
57843;DHT22;43673;51.058;3.734;2022-09-09T17:18:49;20.20;99.90
57843;DHT22;43673;51.058;3.734;2022-09-09T17:21:18;19.80;99.90
57843;DHT22;43673;51.058;3.734;2022-09-09T17:23:45;19.50;99.90
57843;DHT22;43673;51.058;3.734;2022-09-09T17:26:13;19.40;99.90
57843;DHT22;43673;51.058;3.734;2022-09-09T17:28:40;19.30;99.90
57843;DHT22;43673;51.058;3.734;2022-09-09T17:31:08;19.30;99.90
57843;DHT22;43673;51.058;3.734;2022-09-09T17:33:36;19.30;99.90
57843;DHT22;43673;51.058;3.734;2022-09-09T17:36:13;19.30;99.90
57843;DHT22;43673;51.058;3.734;2022-09-09T17:38:40;19.40;99.90
57843;DHT22;43673;51.058;3.734;2022-09-09T17:41:12;19.40;99.90
57843;DHT22;43673;51.058;3.734;2022-09-09T17:43:38;19.40;99.90
57843;DHT22;43673;51.058;3.734;2022-09-09T17:46:14;19.40;99.90
57843;DHT22;43673;51.058;3.734;2022-09-09T17:48:41;19.40;99.90
57843;DHT22;43673;51.058;3.734;2022-09-09T17:51:09;19.40;99.90
57843;DHT22;43673;51.058;3.734;2022-09-09T17:53:41;19.30;99.90
57843;DHT22;43673;51.058;3.734;2022-09-09T17:56:09;19.30;99.90
57843;DHT22;43673;51.058;3.734;2022-09-09T17:58:36;19.30;99.90
57843;DHT22;43673;51.058;3.734;2022-09-09T18:01:12;19.20;99.90
57843;DHT22;43673;51.058;3.734;2022-09-09T18:03:40;19.20;99.90
57843;DHT22;43673;51.058;3.734;2022-09-09T18:06:13;19.10;99.90
57843;DHT22;43673;51.058;3.734;2022-09-09T18:08:41;19.00;99.90
57843;DHT22;43673;51.058;3.734;2022-09-09T18:11:08;19.00;99.90
57843;DHT22;43673;51.058;3.734;2022-09-09T18:13:34;18.90;99.90
57843;DHT22;43673;51.058;3.734;2022-09-09T18:16:01;18.80;99.90
57843;DHT22;43673;51.058;3.734;2022-09-09T18:18:30;18.80;99.90
57843;DHT22;43673;51.058;3.734;2022-09-09T18:21:01;18.70;99.90
57843;DHT22;43673;51.058;3.734;2022-09-09T18:23:30;18.70;99.90
57843;DHT22;43673;51.058;3.734;2022-09-09T18:25:56;18.70;99.90
57843;DHT22;43673;51.058;3.734;2022-09-09T18:28:25;18.70;99.90
57843;DHT22;43673;51.058;3.734;2022-09-09T18:30:52;18.60;99.90
57843;DHT22;43673;51.058;3.734;2022-09-09T18:33:17;18.50;99.90
57843;DHT22;43673;51.058;3.734;2022-09-09T18:35:43;18.50;99.90